Time;durP1;ratioP1;P1;durP2;ratioP2;P2;SDS_P1;SDS_P2;PMS_P1;PMS_P2;Temp;Humidity;BMP_temperature;BMP_pressure;BME280_temperature;BME280_humidity;BME280_pressure;Samples;Min_cycle;Max_cycle;Signal;HPM_P1;HPM_P2
2023/12/21 00:00:11;;;;;;;7.03;2.90;;;;;;;;;;5080982;28;20388;-76
2023/12/21 00:02:37;;;;;;;9.97;3.70;;;;;;;;;;5074156;28;20947;-75
2023/12/21 00:05:23;;;;;;;8.80;3.37;;;;;;;;;;5092030;28;20858;-75
2023/12/21 00:07:49;;;;;;;7.77;3.77;;;;;;;;;;5074797;28;20928;-76
2023/12/21 00:10:17;;;;;;;8.33;3.83;;;;;;;;;;5085361;28;20436;-76
2023/12/21 00:12:43;;;;;;;8.60;3.50;;;;;;;;;;5078361;28;20451;-75
2023/12/21 00:15:10;;;;;;;6.70;2.80;;;;;;;;;;5072190;28;20517;-76
2023/12/21 00:17:37;;;;;;;8.83;3.77;;;;;;;;;;5094856;28;20415;-76
2023/12/21 00:20:04;;;;;;;6.57;2.90;;;;;;;;;;5095940;28;20440;-76
2023/12/21 00:22:31;;;;;;;5.60;2.13;;;;;;;;;;5075869;28;20435;-76
2023/12/21 00:25:15;;;;;;;6.70;3.30;;;;;;;;;;5072864;28;20673;-77
2023/12/21 00:27:42;;;;;;;4.47;2.50;;;;;;;;;;5094645;28;20459;-76
2023/12/21 00:30:09;;;;;;;6.80;2.00;;;;;;;;;;5071785;28;20424;-77
2023/12/21 00:32:35;;;;;;;4.43;2.10;;;;;;;;;;5094182;28;20416;-76
2023/12/21 00:35:02;;;;;;;7.37;2.07;;;;;;;;;;5095586;28;20501;-77
2023/12/21 00:37:46;;;;;;;7.47;2.00;;;;;;;;;;5077088;28;20406;-76
2023/12/21 00:40:13;;;;;;;10.80;2.83;;;;;;;;;;5077433;28;20422;-75
2023/12/21 00:42:41;;;;;;;4.97;2.60;;;;;;;;;;5077748;28;20432;-75
2023/12/21 00:45:08;;;;;;;3.77;1.47;;;;;;;;;;5077377;28;20431;-75
2023/12/21 00:47:35;;;;;;;8.20;2.80;;;;;;;;;;5095051;28;20477;-75
2023/12/21 00:50:01;;;;;;;6.43;2.50;;;;;;;;;;5083758;28;20424;-77
2023/12/21 00:52:28;;;;;;;2.63;1.33;;;;;;;;;;5091110;28;20472;-77
2023/12/21 00:54:55;;;;;;;6.27;2.50;;;;;;;;;;5077604;28;20519;-77
2023/12/21 00:57:21;;;;;;;6.10;2.50;;;;;;;;;;5073028;28;20439;-76
2023/12/21 00:59:48;;;;;;;5.70;2.40;;;;;;;;;;5094436;28;20422;-77
2023/12/21 01:02:15;;;;;;;7.53;2.43;;;;;;;;;;5094972;28;20453;-76
2023/12/21 01:04:41;;;;;;;4.77;2.17;;;;;;;;;;5094830;28;20425;-77
2023/12/21 01:07:08;;;;;;;8.40;2.10;;;;;;;;;;5076697;28;20423;-77
2023/12/21 01:09:35;;;;;;;6.13;2.60;;;;;;;;;;5095328;28;20409;-76
2023/12/21 01:12:02;;;;;;;6.13;1.93;;;;;;;;;;5076827;28;20452;-76
2023/12/21 01:47:00;;;;;;;11.63;3.30;;;;;;;;;;5094718;28;20371;-76
2023/12/21 01:49:27;;;;;;;7.47;2.57;;;;;;;;;;5059774;28;20438;-76
2023/12/21 01:51:53;;;;;;;11.80;4.23;;;;;;;;;;5094282;28;20430;-76
2023/12/21 01:54:20;;;;;;;9.37;3.97;;;;;;;;;;5089745;28;20420;-76
2023/12/21 01:56:46;;;;;;;11.67;4.17;;;;;;;;;;5076537;28;20451;-76
2023/12/21 01:59:13;;;;;;;8.77;3.60;;;;;;;;;;5076088;28;20438;-77
2023/12/21 02:01:40;;;;;;;11.83;4.93;;;;;;;;;;5091606;28;20448;-76
2023/12/21 02:04:24;;;;;;;14.20;4.47;;;;;;;;;;5072377;28;20447;-76
2023/12/21 02:06:51;;;;;;;14.90;4.30;;;;;;;;;;5092922;28;20424;-77
2023/12/21 02:09:35;;;;;;;12.03;4.93;;;;;;;;;;5092990;28;20467;-76
2023/12/21 02:12:02;;;;;;;13.10;4.20;;;;;;;;;;5093781;28;20732;-77
2023/12/21 02:14:46;;;;;;;9.63;3.13;;;;;;;;;;5078725;28;20423;-76
2023/12/21 02:17:13;;;;;;;16.00;5.60;;;;;;;;;;5075814;28;20412;-76
2023/12/21 02:19:40;;;;;;;3.97;2.23;;;;;;;;;;5075825;28;21003;-77
2023/12/21 02:22:07;;;;;;;7.80;3.60;;;;;;;;;;5070528;28;20793;-77
2023/12/21 02:24:34;;;;;;;13.23;4.50;;;;;;;;;;5093887;28;20427;-77
2023/12/21 02:27:18;;;;;;;11.47;4.00;;;;;;;;;;5082259;28;20377;-76
2023/12/21 02:29:44;;;;;;;13.80;4.50;;;;;;;;;;5093199;28;20545;-76
2023/12/21 02:32:11;;;;;;;13.53;4.50;;;;;;;;;;5075435;28;20457;-75
2023/12/21 02:34:37;;;;;;;14.20;4.50;;;;;;;;;;5093375;28;20463;-75
2023/12/21 02:37:04;;;;;;;12.27;4.87;;;;;;;;;;5093387;28;20478;-74
2023/12/21 02:39:48;;;;;;;19.80;5.27;;;;;;;;;;5075641;28;20737;-75
2023/12/21 02:42:15;;;;;;;15.90;4.70;;;;;;;;;;5067492;28;20460;-75
2023/12/21 02:44:42;;;;;;;12.17;3.77;;;;;;;;;;5076248;28;20443;-76
2023/12/21 02:47:09;;;;;;;7.17;3.10;;;;;;;;;;5075846;28;20440;-75
2023/12/21 02:49:35;;;;;;;14.13;4.73;;;;;;;;;;5073659;28;20427;-75
2023/12/21 02:52:19;;;;;;;9.63;3.60;;;;;;;;;;5093743;28;20378;-76
2023/12/21 02:54:46;;;;;;;9.10;3.50;;;;;;;;;;5091792;28;20454;-76
2023/12/21 02:57:30;;;;;;;9.43;3.43;;;;;;;;;;5078484;28;20392;-77
2023/12/21 02:59:57;;;;;;;8.27;3.50;;;;;;;;;;5093680;28;20518;-77
2023/12/21 03:02:41;;;;;;;8.33;2.57;;;;;;;;;;5075214;28;20530;-76
2023/12/21 03:05:07;;;;;;;7.60;2.93;;;;;;;;;;5093642;28;20416;-76
2023/12/21 03:07:34;;;;;;;6.10;2.83;;;;;;;;;;5090153;28;20427;-77
2023/12/21 03:10:01;;;;;;;6.90;2.93;;;;;;;;;;5075537;28;20884;-76
2023/12/21 03:12:28;;;;;;;5.80;2.83;;;;;;;;;;5072285;28;20431;-76
2023/12/21 03:15:12;;;;;;;6.30;2.97;;;;;;;;;;5073084;28;20435;-76
2023/12/21 03:17:39;;;;;;;7.00;3.30;;;;;;;;;;5091662;28;20921;-77
2023/12/21 03:20:07;;;;;;;10.43;3.50;;;;;;;;;;5069772;28;20455;-76
2023/12/21 03:22:34;;;;;;;7.23;3.10;;;;;;;;;;5093417;28;20412;-76
2023/12/21 03:25:01;;;;;;;10.03;4.23;;;;;;;;;;5095392;28;20426;-76
2023/12/21 03:27:47;;;;;;;6.83;3.90;;;;;;;;;;5079320;28;20407;-78
2023/12/21 03:30:13;;;;;;;10.73;5.23;;;;;;;;;;5097793;28;20478;-78
2023/12/21 03:32:42;;;;;;;10.80;5.23;;;;;;;;;;5077351;28;20428;-77
2023/12/21 03:35:09;;;;;;;14.40;6.00;;;;;;;;;;5090178;28;20796;-77
2023/12/21 03:37:37;;;;;;;10.57;5.77;;;;;;;;;;5078808;28;20467;-77
2023/12/21 03:40:06;;;;;;;11.90;5.33;;;;;;;;;;5089432;28;20829;-76
2023/12/21 03:42:33;;;;;;;11.13;5.20;;;;;;;;;;5095485;28;20804;-76
2023/12/21 03:45:00;;;;;;;15.90;5.63;;;;;;;;;;5096291;28;20728;-76
2023/12/21 03:47:26;;;;;;;12.30;6.40;;;;;;;;;;5097020;28;20800;-75
2023/12/21 03:49:53;;;;;;;13.07;6.23;;;;;;;;;;5097113;28;20434;-75
2023/12/21 03:52:20;;;;;;;10.13;4.27;;;;;;;;;;5074335;28;20433;-75
2023/12/21 03:54:47;;;;;;;14.37;5.67;;;;;;;;;;5094812;28;20473;-75
2023/12/21 03:57:14;;;;;;;12.63;5.93;;;;;;;;;;5096065;28;20460;-76
2023/12/21 03:59:41;;;;;;;14.93;5.47;;;;;;;;;;5096127;28;20411;-76
2023/12/21 04:02:07;;;;;;;16.80;5.47;;;;;;;;;;5061368;28;20513;-76
2023/12/21 04:04:34;;;;;;;11.87;4.70;;;;;;;;;;5095934;28;20512;-76
2023/12/21 04:07:00;;;;;;;8.83;3.87;;;;;;;;;;5087912;28;20432;-75
2023/12/21 04:09:28;;;;;;;11.50;4.50;;;;;;;;;;5095040;28;20415;-75
2023/12/21 04:11:54;;;;;;;15.53;5.93;;;;;;;;;;5075172;28;20502;-75
2023/12/21 04:14:21;;;;;;;11.93;5.00;;;;;;;;;;5033989;28;20754;-76
2023/12/21 04:17:05;;;;;;;11.93;3.70;;;;;;;;;;5055686;28;20429;-77
2023/12/21 04:19:31;;;;;;;7.67;3.33;;;;;;;;;;5037881;28;20463;-78
2023/12/21 04:22:16;;;;;;;12.00;4.80;;;;;;;;;;5055342;28;20384;-76
2023/12/21 04:24:42;;;;;;;11.40;3.90;;;;;;;;;;5055380;28;20451;-77
2023/12/21 04:27:28;;;;;;;11.83;4.33;;;;;;;;;;5024032;28;20836;-76
2023/12/21 04:29:55;;;;;;;9.60;4.03;;;;;;;;;;5038134;28;20417;-76
2023/12/21 04:32:21;;;;;;;9.50;4.13;;;;;;;;;;5037889;28;20440;-77
2023/12/21 04:34:51;;;;;;;9.77;5.20;;;;;;;;;;5054381;28;20584;-76
2023/12/21 04:41:17;;;;;;;8.93;4.13;;;;;;;;;;5055116;28;20383;-76
2023/12/21 04:43:44;;;;;;;11.00;4.60;;;;;;;;;;5055200;28;20891;-76
2023/12/21 04:46:10;;;;;;;12.17;4.90;;;;;;;;;;5037237;28;20483;-76
2023/12/21 04:48:37;;;;;;;12.53;4.97;;;;;;;;;;5054533;28;20421;-77
2023/12/21 04:51:04;;;;;;;13.00;4.50;;;;;;;;;;5037026;28;20464;-76
2023/12/21 04:53:48;;;;;;;9.67;4.27;;;;;;;;;;5039833;28;20414;-75
2023/12/21 04:56:15;;;;;;;3.40;2.03;;;;;;;;;;5054661;28;20449;-76
2023/12/21 04:58:42;;;;;;;3.47;2.23;;;;;;;;;;5046772;28;20432;-74
2023/12/21 05:01:10;;;;;;;6.63;3.77;;;;;;;;;;5058024;28;20415;-74
2023/12/21 05:03:37;;;;;;;6.57;3.47;;;;;;;;;;5054904;28;20421;-74
2023/12/21 05:06:04;;;;;;;3.50;1.50;;;;;;;;;;5054471;28;20426;-74
2023/12/21 05:08:31;;;;;;;5.90;2.27;;;;;;;;;;5054602;28;20425;-74
2023/12/21 05:10:57;;;;;;;7.70;3.10;;;;;;;;;;5053897;28;20421;-76
2023/12/21 05:13:24;;;;;;;7.10;3.20;;;;;;;;;;5036858;28;20429;-73
2023/12/21 05:15:51;;;;;;;7.20;3.90;;;;;;;;;;5054756;28;20956;-74
2023/12/21 05:18:17;;;;;;;5.63;2.97;;;;;;;;;;5054982;28;20816;-75
2023/12/21 05:21:02;;;;;;;6.23;3.50;;;;;;;;;;5070580;28;20494;-71
2023/12/21 05:23:29;;;;;;;4.83;3.00;;;;;;;;;;5054579;28;20425;-72
2023/12/21 05:25:55;;;;;;;5.87;3.50;;;;;;;;;;5053978;28;20433;-71
2023/12/21 05:28:22;;;;;;;8.10;3.70;;;;;;;;;;5054311;28;20949;-72
2023/12/21 05:30:49;;;;;;;8.47;4.40;;;;;;;;;;5053531;28;20483;-70
2023/12/21 05:33:16;;;;;;;4.87;2.40;;;;;;;;;;5069220;28;20417;-71
2023/12/21 05:35:43;;;;;;;8.37;4.30;;;;;;;;;;5070060;28;20837;-71
2023/12/21 05:38:09;;;;;;;8.63;3.70;;;;;;;;;;5054230;28;20425;-71
2023/12/21 05:40:54;;;;;;;8.03;4.20;;;;;;;;;;5053846;28;20387;-71
2023/12/21 05:43:21;;;;;;;8.90;3.50;;;;;;;;;;5036136;28;20858;-71
2023/12/21 05:45:48;;;;;;;8.83;4.00;;;;;;;;;;5035629;28;20438;-71
2023/12/21 05:48:15;;;;;;;8.73;4.50;;;;;;;;;;5036315;28;20923;-74
2023/12/21 05:50:41;;;;;;;6.50;4.03;;;;;;;;;;5054164;28;20428;-74
2023/12/21 05:53:08;;;;;;;7.80;3.63;;;;;;;;;;5054160;28;20444;-74
2023/12/21 05:55:35;;;;;;;7.93;4.17;;;;;;;;;;5054474;28;20409;-75
2023/12/21 05:58:01;;;;;;;4.13;2.63;;;;;;;;;;5053446;28;20429;-77
2023/12/21 06:00:28;;;;;;;8.37;4.30;;;;;;;;;;5036686;28;20425;-74
2023/12/21 06:02:56;;;;;;;8.93;4.00;;;;;;;;;;5065507;28;21055;-73
2023/12/21 06:05:26;;;;;;;7.13;3.80;;;;;;;;;;5060595;28;20412;-75
2023/12/21 06:07:53;;;;;;;6.33;3.30;;;;;;;;;;5075978;28;20412;-76
2023/12/21 06:10:19;;;;;;;7.37;3.50;;;;;;;;;;5094084;28;20431;-74
2023/12/21 06:12:46;;;;;;;6.97;3.73;;;;;;;;;;5093927;28;20411;-75
2023/12/21 06:15:13;;;;;;;6.73;4.00;;;;;;;;;;5075784;28;20562;-76
2023/12/21 06:17:40;;;;;;;9.43;4.60;;;;;;;;;;5075577;28;20458;-75
2023/12/21 06:20:07;;;;;;;6.60;3.00;;;;;;;;;;5059312;28;20459;-76
2023/12/21 06:22:34;;;;;;;7.47;3.80;;;;;;;;;;5075695;28;20454;-76
2023/12/21 06:25:01;;;;;;;3.93;2.73;;;;;;;;;;5094028;28;20902;-75
2023/12/21 06:27:27;;;;;;;6.23;3.10;;;;;;;;;;5075603;28;20526;-76
2023/12/21 06:29:54;;;;;;;7.80;3.37;;;;;;;;;;5093741;28;20419;-76
2023/12/21 06:32:22;;;;;;;9.47;5.03;;;;;;;;;;5075612;28;20419;-74
2023/12/21 06:34:49;;;;;;;2.17;1.67;;;;;;;;;;5093784;28;20427;-74
2023/12/21 06:37:15;;;;;;;7.33;4.03;;;;;;;;;;5094183;28;20896;-75
2023/12/21 06:39:42;;;;;;;3.20;1.90;;;;;;;;;;5093626;28;20432;-76
2023/12/21 06:42:09;;;;;;;2.93;1.60;;;;;;;;;;5085801;28;20491;-75
2023/12/21 06:44:36;;;;;;;6.00;3.80;;;;;;;;;;5096308;28;20427;-62
2023/12/21 06:47:02;;;;;;;6.03;3.40;;;;;;;;;;5114623;28;20517;-63
2023/12/21 06:49:29;;;;;;;5.53;3.60;;;;;;;;;;5114316;28;20432;-64
2023/12/21 06:52:14;;;;;;;5.67;3.40;;;;;;;;;;5099093;28;20385;-76
2023/12/21 06:54:40;;;;;;;5.47;2.70;;;;;;;;;;5095308;28;20827;-74
2023/12/21 06:57:07;;;;;;;9.23;3.50;;;;;;;;;;5074893;28;20471;-75
2023/12/21 06:59:34;;;;;;;4.10;2.80;;;;;;;;;;5069728;28;20459;-74
2023/12/21 07:02:00;;;;;;;4.10;2.80;;;;;;;;;;5076291;28;20802;-76
2023/12/21 07:04:28;;;;;;;5.27;2.47;;;;;;;;;;5081050;28;20472;-75
2023/12/21 07:06:57;;;;;;;4.77;2.60;;;;;;;;;;5065616;28;20550;-74
2023/12/21 07:09:26;;;;;;;3.50;2.30;;;;;;;;;;5080232;28;20421;-74
2023/12/21 07:19:06;;;;;;;3.97;2.43;;;;;;;;;;5089845;28;20469;-73
2023/12/21 07:21:33;;;;;;;5.87;3.07;;;;;;;;;;5071712;28;20447;-74
2023/12/21 07:24:00;;;;;;;3.70;2.70;;;;;;;;;;5089569;28;20431;-75
2023/12/21 07:26:29;;;;;;;6.00;3.20;;;;;;;;;;5054832;28;20423;-73
2023/12/21 07:28:57;;;;;;;3.10;1.87;;;;;;;;;;5090106;28;20786;-72
2023/12/21 07:31:28;;;;;;;4.60;2.77;;;;;;;;;;5072956;28;20821;-72
2023/12/21 07:33:59;;;;;;;4.90;3.27;;;;;;;;;;5056647;28;20435;-72
2023/12/21 07:36:28;;;;;;;4.67;3.03;;;;;;;;;;5056657;28;20467;-73
2023/12/21 07:38:55;;;;;;;4.37;2.73;;;;;;;;;;5089853;28;20428;-73
2023/12/21 07:41:26;;;;;;;4.93;3.70;;;;;;;;;;5039228;28;20582;-73
2023/12/21 07:43:54;;;;;;;5.60;3.67;;;;;;;;;;5088632;28;20540;-73
2023/12/21 07:46:21;;;;;;;7.53;3.60;;;;;;;;;;5086468;28;20435;-73
2023/12/21 07:48:48;;;;;;;5.53;3.27;;;;;;;;;;5070560;28;20469;-74
2023/12/21 07:51:15;;;;;;;4.97;2.80;;;;;;;;;;5071016;28;20431;-75
2023/12/21 07:54:02;;;;;;;4.87;2.83;;;;;;;;;;5059518;28;20430;-74
2023/12/21 07:56:29;;;;;;;4.93;2.20;;;;;;;;;;5070781;28;20475;-75
2023/12/21 07:59:04;;;;;;;4.87;3.10;;;;;;;;;;5041809;28;20536;-74
2023/12/21 08:09:43;;;;;;;3.60;2.13;;;;;;;;;;5087427;28;20415;-75
2023/12/21 08:12:13;;;;;;;4.00;3.03;;;;;;;;;;5087348;28;20930;-73
2023/12/21 08:14:40;;;;;;;4.57;3.17;;;;;;;;;;5069346;28;20542;-75
2023/12/21 08:17:10;;;;;;;4.67;3.13;;;;;;;;;;5087776;28;20494;-71
2023/12/21 08:19:45;;;;;;;4.00;2.67;;;;;;;;;;5088823;28;20454;-74
2023/12/21 08:22:14;;;;;;;5.73;3.40;;;;;;;;;;5070038;28;20566;-73
2023/12/21 08:24:47;;;;;;;3.53;2.43;;;;;;;;;;5070602;28;20966;-75
2023/12/21 08:27:13;;;;;;;6.83;4.67;;;;;;;;;;5070270;28;20416;-76
2023/12/21 08:29:41;;;;;;;5.30;3.40;;;;;;;;;;5053095;28;20419;-76
2023/12/21 08:32:08;;;;;;;3.93;2.30;;;;;;;;;;5069432;28;20426;-75
2023/12/21 08:34:35;;;;;;;6.03;3.33;;;;;;;;;;5053441;28;20432;-77
2023/12/21 08:37:02;;;;;;;4.43;2.80;;;;;;;;;;5087317;28;20802;-74
2023/12/21 08:39:29;;;;;;;5.07;3.80;;;;;;;;;;5068896;28;20432;-76
2023/12/21 08:41:55;;;;;;;5.83;3.73;;;;;;;;;;5087026;28;20431;-75
2023/12/21 08:44:22;;;;;;;2.73;1.80;;;;;;;;;;5086846;28;20423;-78
2023/12/21 08:46:53;;;;;;;4.87;3.20;;;;;;;;;;5068399;28;20443;-73
2023/12/21 08:49:20;;;;;;;3.40;2.67;;;;;;;;;;5068937;28;20197;-74
2023/12/21 08:51:49;;;;;;;5.40;1.77;;;;;;;;;;5068551;28;20419;-78
2023/12/21 08:54:17;;;;;;;3.80;1.50;;;;;;;;;;5086874;28;20485;-76
2023/12/21 08:56:44;;;;;;;2.87;1.77;;;;;;;;;;5052247;28;20499;-76
2023/12/21 08:59:12;;;;;;;3.07;1.97;;;;;;;;;;5057084;28;20519;-78
2023/12/21 09:01:41;;;;;;;5.63;2.87;;;;;;;;;;5051919;28;20433;-77
2023/12/21 09:04:08;;;;;;;4.10;2.13;;;;;;;;;;5042794;28;20476;-74
2023/12/21 09:06:36;;;;;;;1.77;1.30;;;;;;;;;;5046145;28;20947;-74
2023/12/21 09:09:05;;;;;;;4.40;2.03;;;;;;;;;;5045076;28;20839;-73
2023/12/21 09:11:33;;;;;;;2.13;1.47;;;;;;;;;;5028305;28;20457;-75
2023/12/21 09:13:59;;;;;;;3.07;1.83;;;;;;;;;;5044350;28;20527;-75
2023/12/21 09:16:26;;;;;;;2.77;1.73;;;;;;;;;;5028501;28;20437;-76
2023/12/21 09:18:54;;;;;;;3.53;1.73;;;;;;;;;;5044829;28;20937;-75
2023/12/21 09:21:22;;;;;;;4.73;2.13;;;;;;;;;;5045133;28;20450;-75
2023/12/21 09:23:52;;;;;;;6.77;2.70;;;;;;;;;;5012672;28;20430;-77
2023/12/21 09:26:20;;;;;;;3.57;2.50;;;;;;;;;;5027992;28;20437;-72
2023/12/21 09:28:48;;;;;;;2.67;1.90;;;;;;;;;;5045670;28;20430;-71
2023/12/21 09:31:14;;;;;;;4.67;2.07;;;;;;;;;;5027699;28;20429;-74
2023/12/21 09:33:43;;;;;;;3.93;2.10;;;;;;;;;;5027381;28;20433;-74
2023/12/21 09:36:10;;;;;;;3.67;2.53;;;;;;;;;;5044142;28;20426;-75
2023/12/21 09:38:38;;;;;;;3.00;1.90;;;;;;;;;;5012966;28;20853;-73
2023/12/21 09:41:07;;;;;;;1.83;1.43;;;;;;;;;;5031296;28;20488;-74
2023/12/21 09:43:34;;;;;;;2.23;1.40;;;;;;;;;;5048122;28;20432;-75
2023/12/21 09:46:01;;;;;;;2.43;1.80;;;;;;;;;;5065560;28;20423;-73
2023/12/21 09:48:30;;;;;;;1.50;1.17;;;;;;;;;;5047166;28;20466;-76
2023/12/21 09:51:02;;;;;;;3.37;2.20;;;;;;;;;;5047471;28;20428;-75
2023/12/21 09:53:29;;;;;;;2.13;1.43;;;;;;;;;;5031940;28;20432;-79
2023/12/21 09:55:57;;;;;;;1.93;1.27;;;;;;;;;;5030764;28;20757;-75
2023/12/21 09:58:25;;;;;;;1.90;1.17;;;;;;;;;;5019738;28;20503;-75
2023/12/21 10:01:10;;;;;;;2.03;1.70;;;;;;;;;;5033323;28;20438;-71
2023/12/21 10:03:37;;;;;;;3.13;2.43;;;;;;;;;;5065323;28;20428;-70
2023/12/21 10:06:05;;;;;;;3.27;2.57;;;;;;;;;;5047429;28;20432;-71
2023/12/21 10:08:38;;;;;;;4.17;3.20;;;;;;;;;;5031925;28;20432;-76
2023/12/21 10:11:08;;;;;;;4.80;3.00;;;;;;;;;;5047454;28;20973;-73
2023/12/21 10:13:36;;;;;;;2.03;1.60;;;;;;;;;;5048444;28;20524;-75
2023/12/21 10:16:04;;;;;;;1.53;1.23;;;;;;;;;;5030850;28;21080;-78
2023/12/21 10:18:31;;;;;;;5.67;3.90;;;;;;;;;;5065073;28;20796;-78
2023/12/21 10:20:58;;;;;;;4.80;2.20;;;;;;;;;;5046878;28;20458;-78
2023/12/21 10:23:25;;;;;;;2.73;1.53;;;;;;;;;;5047248;28;20432;-78
2023/12/21 10:26:10;;;;;;;1.43;0.97;;;;;;;;;;5038285;28;20854;-74
2023/12/21 10:28:37;;;;;;;4.90;2.63;;;;;;;;;;5048120;28;20976;-74
2023/12/21 10:31:07;;;;;;;3.63;2.80;;;;;;;;;;5065567;28;20760;-75
2023/12/21 10:33:35;;;;;;;4.03;2.70;;;;;;;;;;5051104;28;20432;-73
2023/12/21 10:36:03;;;;;;;4.10;2.90;;;;;;;;;;5052346;28;20424;-75
2023/12/21 10:38:31;;;;;;;2.87;2.13;;;;;;;;;;5053455;28;20459;-74
2023/12/21 10:41:05;;;;;;;4.07;2.90;;;;;;;;;;5073693;28;20420;-76
2023/12/21 10:43:34;;;;;;;3.23;2.30;;;;;;;;;;5070675;28;20488;-78
2023/12/21 10:46:04;;;;;;;3.30;2.43;;;;;;;;;;5053551;28;20425;-80
2023/12/21 10:48:31;;;;;;;3.83;3.13;;;;;;;;;;5053607;28;20466;-80
2023/12/21 10:50:58;;;;;;;4.00;2.93;;;;;;;;;;5036659;28;20440;-75
2023/12/21 10:53:26;;;;;;;4.47;3.80;;;;;;;;;;5070394;28;20428;-73
2023/12/21 10:55:53;;;;;;;4.73;3.43;;;;;;;;;;5069800;28;20441;-73
2023/12/21 10:58:21;;;;;;;4.30;2.87;;;;;;;;;;5058528;28;20483;-76
2023/12/21 11:00:50;;;;;;;3.67;2.40;;;;;;;;;;5036781;28;20575;-77
2023/12/21 11:03:19;;;;;;;5.73;3.37;;;;;;;;;;5051794;28;20412;-78
2023/12/21 11:06:05;;;;;;;5.00;3.67;;;;;;;;;;5037710;28;20439;-74
2023/12/21 11:08:34;;;;;;;5.90;3.23;;;;;;;;;;5034950;28;21984;-78
2023/12/21 11:11:04;;;;;;;4.77;3.80;;;;;;;;;;5034699;28;20434;-79
2023/12/21 11:13:30;;;;;;;5.80;3.90;;;;;;;;;;5050262;28;20432;-72
2023/12/21 11:15:59;;;;;;;5.50;3.90;;;;;;;;;;5069958;28;20424;-72
2023/12/21 11:18:29;;;;;;;5.27;4.23;;;;;;;;;;5035420;28;20513;-75
2023/12/21 11:20:57;;;;;;;5.77;4.00;;;;;;;;;;5069269;28;20822;-73
2023/12/21 11:23:24;;;;;;;6.73;4.30;;;;;;;;;;5064832;28;20432;-73
2023/12/21 11:25:57;;;;;;;4.30;3.50;;;;;;;;;;5011497;28;20437;-72
2023/12/21 11:28:28;;;;;;;6.63;4.20;;;;;;;;;;5012809;28;20462;-74
2023/12/21 11:31:15;;;;;;;5.20;3.53;;;;;;;;;;5001775;28;20450;-75
2023/12/21 11:33:43;;;;;;;5.30;3.10;;;;;;;;;;5030189;28;20437;-73
2023/12/21 11:36:21;;;;;;;7.70;4.80;;;;;;;;;;5029640;28;20440;-73
2023/12/21 11:38:48;;;;;;;7.07;3.63;;;;;;;;;;5030501;28;20280;-72
2023/12/21 11:41:22;;;;;;;9.57;5.63;;;;;;;;;;5039749;28;20871;-73
2023/12/21 11:44:03;;;;;;;6.33;4.70;;;;;;;;;;5021168;28;20452;-73
2023/12/21 11:46:35;;;;;;;8.03;4.87;;;;;;;;;;5031896;28;20534;-72
2023/12/21 11:49:04;;;;;;;8.93;5.40;;;;;;;;;;5049446;28;20572;-72
2023/12/21 11:51:32;;;;;;;7.40;4.67;;;;;;;;;;5014017;28;20417;-71
2023/12/21 11:54:04;;;;;;;7.53;4.67;;;;;;;;;;5013422;28;20425;-72
2023/12/21 11:56:35;;;;;;;7.23;4.23;;;;;;;;;;5013963;28;20432;-73
2023/12/21 11:59:06;;;;;;;7.03;4.43;;;;;;;;;;5001824;28;20487;-71
2023/12/21 12:01:33;;;;;;;5.80;3.87;;;;;;;;;;5047326;28;20430;-73
2023/12/21 12:04:01;;;;;;;6.10;3.93;;;;;;;;;;5033647;28;20502;-74
2023/12/21 12:06:28;;;;;;;4.47;2.53;;;;;;;;;;5067838;28;20938;-74
2023/12/21 12:09:15;;;;;;;5.77;3.33;;;;;;;;;;5052805;28;20871;-74
2023/12/21 12:11:51;;;;;;;5.87;3.10;;;;;;;;;;5033572;28;20946;-73
2023/12/21 12:14:18;;;;;;;6.63;4.07;;;;;;;;;;5048473;28;20515;-74
2023/12/21 12:16:46;;;;;;;5.80;3.87;;;;;;;;;;5049361;28;20198;-74
2023/12/21 12:23:14;;;;;;;8.57;4.27;;;;;;;;;;5066532;28;20953;-74
2023/12/21 12:25:41;;;;;;;6.57;4.17;;;;;;;;;;5048909;28;20506;-72
2023/12/21 12:28:15;;;;;;;7.27;4.03;;;;;;;;;;5049741;28;20486;-75
2023/12/21 12:30:42;;;;;;;6.97;3.47;;;;;;;;;;5066830;28;20724;-74
2023/12/21 12:33:11;;;;;;;6.43;3.47;;;;;;;;;;5048971;28;20447;-74
2023/12/21 12:35:39;;;;;;;4.80;3.10;;;;;;;;;;5066567;28;20818;-74
2023/12/21 12:38:06;;;;;;;5.43;3.60;;;;;;;;;;5066293;28;20210;-74
2023/12/21 12:40:33;;;;;;;6.10;3.07;;;;;;;;;;5048585;28;20439;-74
2023/12/21 12:43:00;;;;;;;7.90;4.10;;;;;;;;;;5047954;28;20194;-74
2023/12/21 12:45:27;;;;;;;5.73;3.40;;;;;;;;;;5066442;28;20205;-72
2023/12/21 12:47:54;;;;;;;5.70;3.33;;;;;;;;;;5066306;28;20273;-74
2023/12/21 12:50:23;;;;;;;3.43;2.40;;;;;;;;;;5048027;28;20305;-72
2023/12/21 12:52:50;;;;;;;5.33;3.33;;;;;;;;;;5066051;28;22355;-71
2023/12/21 12:55:19;;;;;;;5.40;3.30;;;;;;;;;;5048143;28;20932;-71
2023/12/21 12:57:48;;;;;;;5.33;3.03;;;;;;;;;;5051928;28;20217;-73
2023/12/21 13:00:16;;;;;;;4.83;3.00;;;;;;;;;;5066361;28;20186;-74
2023/12/21 13:02:43;;;;;;;4.10;2.80;;;;;;;;;;5031200;28;20189;-75
2023/12/21 13:05:10;;;;;;;4.43;2.70;;;;;;;;;;5047657;28;20226;-73
2023/12/21 13:07:41;;;;;;;4.63;3.10;;;;;;;;;;5066030;28;20200;-76
2023/12/21 13:10:11;;;;;;;2.37;1.63;;;;;;;;;;5048158;28;20263;-73
2023/12/21 13:12:38;;;;;;;4.50;2.53;;;;;;;;;;5031470;28;20201;-73
2023/12/21 13:15:08;;;;;;;3.93;2.33;;;;;;;;;;5059561;28;20198;-72
2023/12/21 13:17:35;;;;;;;3.17;2.00;;;;;;;;;;5047845;28;20305;-72
2023/12/21 13:20:05;;;;;;;4.60;2.50;;;;;;;;;;5041624;28;20230;-73
2023/12/21 13:22:34;;;;;;;5.67;2.00;;;;;;;;;;5047794;28;20186;-72
2023/12/21 13:25:01;;;;;;;3.63;2.13;;;;;;;;;;5047470;28;20190;-73
2023/12/21 13:27:28;;;;;;;2.53;1.90;;;;;;;;;;5057018;28;20205;-74
2023/12/21 13:29:55;;;;;;;3.13;2.00;;;;;;;;;;5045576;28;20252;-80
2023/12/21 13:32:22;;;;;;;3.00;1.70;;;;;;;;;;5011484;28;20279;-78
2023/12/21 13:34:49;;;;;;;2.63;2.00;;;;;;;;;;5027962;28;20273;-82
2023/12/21 13:37:16;;;;;;;2.23;1.30;;;;;;;;;;5046241;28;20198;-81
2023/12/21 13:39:49;;;;;;;3.63;2.00;;;;;;;;;;5012615;28;20744;-76
2023/12/21 13:42:18;;;;;;;3.17;1.80;;;;;;;;;;5013104;28;20242;-79
2023/12/21 13:44:44;;;;;;;2.23;1.80;;;;;;;;;;5028131;28;20207;-80
2023/12/21 13:47:14;;;;;;;2.77;1.30;;;;;;;;;;5027788;28;20191;-81
2023/12/21 13:49:41;;;;;;;2.70;1.60;;;;;;;;;;5045703;28;20187;-75
2023/12/21 13:52:08;;;;;;;3.27;1.70;;;;;;;;;;5012208;28;20194;-77
2023/12/21 13:54:35;;;;;;;2.40;1.83;;;;;;;;;;5027734;28;20201;-78
2023/12/21 13:57:02;;;;;;;2.57;1.90;;;;;;;;;;5045642;28;20244;-79
2023/12/21 13:59:40;;;;;;;2.90;1.83;;;;;;;;;;5033875;28;20308;-76
2023/12/21 14:02:07;;;;;;;2.00;1.47;;;;;;;;;;5010948;28;20542;-76
2023/12/21 14:04:35;;;;;;;2.47;1.40;;;;;;;;;;5045177;28;20226;-80
2023/12/21 14:07:03;;;;;;;1.87;0.90;;;;;;;;;;5011212;28;20248;-79
2023/12/21 14:09:30;;;;;;;2.27;1.50;;;;;;;;;;5027410;28;20189;-81
2023/12/21 14:11:59;;;;;;;3.03;1.73;;;;;;;;;;5048325;28;20329;-80
2023/12/21 14:14:33;;;;;;;3.07;1.87;;;;;;;;;;5026436;28;20231;-79
2023/12/21 14:17:10;;;;;;;2.63;1.60;;;;;;;;;;5049796;28;20197;-78
2023/12/21 14:19:40;;;;;;;1.33;1.03;;;;;;;;;;5047324;28;20210;-76
2023/12/21 14:22:07;;;;;;;1.93;1.50;;;;;;;;;;5065639;28;20217;-75
2023/12/21 14:24:35;;;;;;;3.33;1.87;;;;;;;;;;5065505;28;20300;-72
2023/12/21 14:27:02;;;;;;;3.20;1.80;;;;;;;;;;5046946;28;20193;-72
2023/12/21 14:29:29;;;;;;;1.93;1.40;;;;;;;;;;5064953;28;20182;-73
2023/12/21 14:31:56;;;;;;;2.03;1.20;;;;;;;;;;5064262;28;20259;-74
2023/12/21 14:34:22;;;;;;;2.40;1.20;;;;;;;;;;5064516;28;20198;-75
2023/12/21 14:36:50;;;;;;;1.07;0.63;;;;;;;;;;5038397;28;20186;-79
2023/12/21 14:39:17;;;;;;;2.13;1.20;;;;;;;;;;5064730;28;20214;-75
2023/12/21 14:41:44;;;;;;;3.00;1.83;;;;;;;;;;5046752;28;20610;-77
2023/12/21 14:44:11;;;;;;;2.70;2.03;;;;;;;;;;5030039;28;20340;-71
2023/12/21 14:46:41;;;;;;;3.10;2.07;;;;;;;;;;5064520;28;20186;-73
2023/12/21 14:49:08;;;;;;;2.83;1.73;;;;;;;;;;5064429;28;20670;-74
2023/12/21 14:51:40;;;;;;;4.00;2.17;;;;;;;;;;5029930;28;20181;-76
2023/12/21 14:54:07;;;;;;;3.30;1.80;;;;;;;;;;5062823;28;21893;-74
2023/12/21 14:56:34;;;;;;;4.83;2.13;;;;;;;;;;5046173;28;20201;-73
2023/12/21 15:03:02;;;;;;;5.83;3.07;;;;;;;;;;5044418;28;20228;-76
2023/12/21 15:05:29;;;;;;;6.33;3.00;;;;;;;;;;5076641;28;20226;-74
2023/12/21 15:07:56;;;;;;;5.60;2.80;;;;;;;;;;5046089;28;20726;-73
2023/12/21 15:10:23;;;;;;;6.70;3.23;;;;;;;;;;5064273;28;20289;-73
2023/12/21 15:12:50;;;;;;;2.90;1.87;;;;;;;;;;5064065;28;20182;-76
2023/12/21 15:15:18;;;;;;;6.40;2.80;;;;;;;;;;5046507;28;20198;-74
2023/12/21 15:17:46;;;;;;;4.40;2.73;;;;;;;;;;5029779;28;20226;-75
2023/12/21 15:20:16;;;;;;;3.67;1.93;;;;;;;;;;5066492;28;20212;-76
2023/12/21 15:22:43;;;;;;;6.67;3.63;;;;;;;;;;5067564;28;20254;-73
2023/12/21 15:25:10;;;;;;;3.33;1.63;;;;;;;;;;5067272;28;20194;-75
2023/12/21 15:27:55;;;;;;;3.87;2.17;;;;;;;;;;5067357;28;20613;-74
2023/12/21 15:30:22;;;;;;;4.60;2.23;;;;;;;;;;5067427;28;20200;-76
2023/12/21 15:32:50;;;;;;;5.03;2.83;;;;;;;;;;5033177;28;21587;-73
2023/12/21 15:35:17;;;;;;;4.97;2.63;;;;;;;;;;5033023;28;20186;-76
2023/12/21 15:37:44;;;;;;;2.90;1.50;;;;;;;;;;5016650;28;20248;-75
2023/12/21 15:40:12;;;;;;;4.53;3.00;;;;;;;;;;5049472;28;20561;-74
2023/12/21 15:42:39;;;;;;;4.80;2.60;;;;;;;;;;5049147;28;20190;-77
2023/12/21 15:45:06;;;;;;;4.33;2.60;;;;;;;;;;5067142;28;20194;-75
2023/12/21 15:47:33;;;;;;;5.50;2.87;;;;;;;;;;5016026;28;20541;-75
2023/12/21 15:50:00;;;;;;;4.20;1.93;;;;;;;;;;5049095;28;20196;-79